sensor_id;sensor_type;location;lat;lon;timestamp;temperature;humidity
56076;DHT22;41951;49.022;12.066;2022-10-31T00:00:50;11.30;99.90
56076;DHT22;41951;49.022;12.066;2022-10-31T00:03:16;11.30;99.90
56076;DHT22;41951;49.022;12.066;2022-10-31T00:05:44;11.20;99.90
56076;DHT22;41951;49.022;12.066;2022-10-31T00:08:10;11.10;99.90
56076;DHT22;41951;49.022;12.066;2022-10-31T00:10:40;10.90;99.90
56076;DHT22;41951;49.022;12.066;2022-10-31T00:13:06;11.00;99.90
56076;DHT22;41951;49.022;12.066;2022-10-31T00:15:33;11.00;99.90
56076;DHT22;41951;49.022;12.066;2022-10-31T00:17:59;10.90;99.90
56076;DHT22;41951;49.022;12.066;2022-10-31T00:20:25;10.90;99.90
56076;DHT22;41951;49.022;12.066;2022-10-31T00:22:50;10.90;99.90
56076;DHT22;41951;49.022;12.066;2022-10-31T00:25:16;10.90;99.90
56076;DHT22;41951;49.022;12.066;2022-10-31T00:27:41;11.00;99.90
56076;DHT22;41951;49.022;12.066;2022-10-31T00:30:07;11.00;99.90
56076;DHT22;41951;49.022;12.066;2022-10-31T00:32:33;11.00;99.90
56076;DHT22;41951;49.022;12.066;2022-10-31T00:34:58;10.90;99.90
56076;DHT22;41951;49.022;12.066;2022-10-31T00:37:24;10.90;99.90
56076;DHT22;41951;49.022;12.066;2022-10-31T00:39:49;10.90;99.90
56076;DHT22;41951;49.022;12.066;2022-10-31T00:42:15;10.90;99.90
56076;DHT22;41951;49.022;12.066;2022-10-31T00:44:41;10.90;99.90
56076;DHT22;41951;49.022;12.066;2022-10-31T00:47:06;10.90;99.90
56076;DHT22;41951;49.022;12.066;2022-10-31T00:49:32;10.90;99.90
56076;DHT22;41951;49.022;12.066;2022-10-31T00:51:58;10.90;99.90
56076;DHT22;41951;49.022;12.066;2022-10-31T00:54:23;10.90;99.90
56076;DHT22;41951;49.022;12.066;2022-10-31T00:56:49;10.90;99.90
56076;DHT22;41951;49.022;12.066;2022-10-31T00:59:14;10.90;99.90
56076;DHT22;41951;49.022;12.066;2022-10-31T01:01:40;10.90;99.90
56076;DHT22;41951;49.022;12.066;2022-10-31T01:04:06;10.90;99.90
56076;DHT22;41951;49.022;12.066;2022-10-31T01:06:31;10.90;99.90
56076;DHT22;41951;49.022;12.066;2022-10-31T01:08:57;10.90;99.90
56076;DHT22;41951;49.022;12.066;2022-10-31T01:11:23;10.90;99.90
56076;DHT22;41951;49.022;12.066;2022-10-31T01:13:53;10.90;99.90
56076;DHT22;41951;49.022;12.066;2022-10-31T01:16:21;10.80;99.90
56076;DHT22;41951;49.022;12.066;2022-10-31T01:18:47;10.80;99.90
56076;DHT22;41951;49.022;12.066;2022-10-31T01:21:16;10.70;99.90
56076;DHT22;41951;49.022;12.066;2022-10-31T01:23:42;10.70;99.90
56076;DHT22;41951;49.022;12.066;2022-10-31T01:28:46;10.60;99.90
56076;DHT22;41951;49.022;12.066;2022-10-31T01:31:14;10.60;99.90
56076;DHT22;41951;49.022;12.066;2022-10-31T01:33:39;10.60;99.90
56076;DHT22;41951;49.022;12.066;2022-10-31T01:36:35;10.60;99.90
56076;DHT22;41951;49.022;12.066;2022-10-31T01:39:05;10.60;99.90
56076;DHT22;41951;49.022;12.066;2022-10-31T01:41:34;10.60;99.90
56076;DHT22;41951;49.022;12.066;2022-10-31T01:44:48;10.50;99.90
56076;DHT22;41951;49.022;12.066;2022-10-31T01:52:00;10.30;99.90
56076;DHT22;41951;49.022;12.066;2022-10-31T01:54:30;10.40;99.90
56076;DHT22;41951;49.022;12.066;2022-10-31T01:56:59;10.40;99.90
56076;DHT22;41951;49.022;12.066;2022-10-31T01:59:28;10.40;99.90
56076;DHT22;41951;49.022;12.066;2022-10-31T02:01:54;10.40;99.90
56076;DHT22;41951;49.022;12.066;2022-10-31T02:04:22;10.40;99.90
56076;DHT22;41951;49.022;12.066;2022-10-31T02:06:49;10.40;99.90
56076;DHT22;41951;49.022;12.066;2022-10-31T02:09:19;10.40;99.90
56076;DHT22;41951;49.022;12.066;2022-10-31T02:11:53;10.50;99.90
56076;DHT22;41951;49.022;12.066;2022-10-31T02:14:25;10.40;99.90
56076;DHT22;41951;49.022;12.066;2022-10-31T02:16:53;10.30;99.90
56076;DHT22;41951;49.022;12.066;2022-10-31T02:19:30;10.20;99.90
56076;DHT22;41951;49.022;12.066;2022-10-31T02:33:30;10.10;99.90
56076;DHT22;41951;49.022;12.066;2022-10-31T02:36:06;10.10;99.90
56076;DHT22;41951;49.022;12.066;2022-10-31T02:44:10;10.00;99.90
56076;DHT22;41951;49.022;12.066;2022-10-31T02:47:00;10.00;99.90
56076;DHT22;41951;49.022;12.066;2022-10-31T02:49:43;10.00;99.90
56076;DHT22;41951;49.022;12.066;2022-10-31T02:52:20;9.90;99.90
56076;DHT22;41951;49.022;12.066;2022-10-31T02:54:48;9.80;99.90
56076;DHT22;41951;49.022;12.066;2022-10-31T02:57:15;9.80;99.90
56076;DHT22;41951;49.022;12.066;2022-10-31T02:59:47;9.70;99.90
56076;DHT22;41951;49.022;12.066;2022-10-31T03:03:22;9.70;99.90
56076;DHT22;41951;49.022;12.066;2022-10-31T03:15:53;10.20;99.90
56076;DHT22;41951;49.022;12.066;2022-10-31T03:18:32;10.20;99.90
56076;DHT22;41951;49.022;12.066;2022-10-31T03:21:04;10.10;99.90
56076;DHT22;41951;49.022;12.066;2022-10-31T03:23:32;10.00;99.90
56076;DHT22;41951;49.022;12.066;2022-10-31T03:26:01;10.00;99.90
56076;DHT22;41951;49.022;12.066;2022-10-31T03:28:36;9.70;99.90
56076;DHT22;41951;49.022;12.066;2022-10-31T03:31:04;9.70;99.90
56076;DHT22;41951;49.022;12.066;2022-10-31T03:33:34;9.70;99.90
56076;DHT22;41951;49.022;12.066;2022-10-31T03:36:03;9.70;99.90
56076;DHT22;41951;49.022;12.066;2022-10-31T03:38:32;9.80;99.90
56076;DHT22;41951;49.022;12.066;2022-10-31T03:41:00;9.90;99.90
56076;DHT22;41951;49.022;12.066;2022-10-31T03:43:32;9.90;99.90
56076;DHT22;41951;49.022;12.066;2022-10-31T03:45:59;9.70;99.90
56076;DHT22;41951;49.022;12.066;2022-10-31T03:48:25;9.70;99.90
56076;DHT22;41951;49.022;12.066;2022-10-31T03:54:01;9.80;99.90
56076;DHT22;41951;49.022;12.066;2022-10-31T03:59:10;9.80;99.90
56076;DHT22;41951;49.022;12.066;2022-10-31T04:01:42;9.80;99.90
56076;DHT22;41951;49.022;12.066;2022-10-31T04:04:10;9.70;99.90
56076;DHT22;41951;49.022;12.066;2022-10-31T04:06:38;9.60;99.90
56076;DHT22;41951;49.022;12.066;2022-10-31T04:09:05;9.60;99.90
56076;DHT22;41951;49.022;12.066;2022-10-31T04:11:36;9.60;99.90
56076;DHT22;41951;49.022;12.066;2022-10-31T04:14:02;9.70;99.90
56076;DHT22;41951;49.022;12.066;2022-10-31T04:16:29;9.80;99.90
56076;DHT22;41951;49.022;12.066;2022-10-31T04:18:56;9.90;99.90
56076;DHT22;41951;49.022;12.066;2022-10-31T04:21:27;10.00;99.90
56076;DHT22;41951;49.022;12.066;2022-10-31T04:23:54;10.10;99.90
56076;DHT22;41951;49.022;12.066;2022-10-31T04:26:19;10.10;99.90
56076;DHT22;41951;49.022;12.066;2022-10-31T04:28:45;10.20;99.90
56076;DHT22;41951;49.022;12.066;2022-10-31T04:31:11;10.10;99.90
56076;DHT22;41951;49.022;12.066;2022-10-31T04:33:37;10.10;99.90
56076;DHT22;41951;49.022;12.066;2022-10-31T04:36:03;10.10;99.90
56076;DHT22;41951;49.022;12.066;2022-10-31T04:38:30;10.10;99.90
56076;DHT22;41951;49.022;12.066;2022-10-31T04:40:55;10.10;99.90
56076;DHT22;41951;49.022;12.066;2022-10-31T04:43:21;10.20;99.90
56076;DHT22;41951;49.022;12.066;2022-10-31T04:45:46;10.30;99.90
56076;DHT22;41951;49.022;12.066;2022-10-31T04:48:12;10.30;99.90
56076;DHT22;41951;49.022;12.066;2022-10-31T04:50:37;10.30;99.90
56076;DHT22;41951;49.022;12.066;2022-10-31T04:53:03;10.30;99.90
56076;DHT22;41951;49.022;12.066;2022-10-31T04:55:29;10.30;99.90
56076;DHT22;41951;49.022;12.066;2022-10-31T04:57:54;10.30;99.90
56076;DHT22;41951;49.022;12.066;2022-10-31T05:00:21;10.30;99.90
56076;DHT22;41951;49.022;12.066;2022-10-31T05:02:49;10.30;99.90
56076;DHT22;41951;49.022;12.066;2022-10-31T05:05:16;10.30;99.90
56076;DHT22;41951;49.022;12.066;2022-10-31T05:07:43;10.30;99.90
56076;DHT22;41951;49.022;12.066;2022-10-31T05:10:15;10.30;99.90
56076;DHT22;41951;49.022;12.066;2022-10-31T05:12:52;10.30;99.90
56076;DHT22;41951;49.022;12.066;2022-10-31T05:15:20;10.30;99.90
56076;DHT22;41951;49.022;12.066;2022-10-31T05:17:46;10.30;99.90
56076;DHT22;41951;49.022;12.066;2022-10-31T05:20:13;10.30;99.90
56076;DHT22;41951;49.022;12.066;2022-10-31T05:22:47;10.30;99.90
56076;DHT22;41951;49.022;12.066;2022-10-31T05:25:13;10.30;99.90
56076;DHT22;41951;49.022;12.066;2022-10-31T05:27:47;10.20;99.90
56076;DHT22;41951;49.022;12.066;2022-10-31T05:30:16;10.20;99.90
56076;DHT22;41951;49.022;12.066;2022-10-31T05:32:44;10.10;99.90
56076;DHT22;41951;49.022;12.066;2022-10-31T05:35:12;10.00;99.90
56076;DHT22;41951;49.022;12.066;2022-10-31T05:37:38;10.00;99.90
56076;DHT22;41951;49.022;12.066;2022-10-31T05:40:05;10.00;99.90
56076;DHT22;41951;49.022;12.066;2022-10-31T05:42:32;9.90;99.90
56076;DHT22;41951;49.022;12.066;2022-10-31T05:44:58;9.90;99.90
56076;DHT22;41951;49.022;12.066;2022-10-31T05:47:23;9.90;99.90
56076;DHT22;41951;49.022;12.066;2022-10-31T05:49:49;10.00;99.90
56076;DHT22;41951;49.022;12.066;2022-10-31T05:52:14;9.90;99.90
56076;DHT22;41951;49.022;12.066;2022-10-31T05:54:40;9.90;99.90
56076;DHT22;41951;49.022;12.066;2022-10-31T05:57:06;9.90;99.90
56076;DHT22;41951;49.022;12.066;2022-10-31T05:59:31;9.90;99.90
56076;DHT22;41951;49.022;12.066;2022-10-31T06:01:57;9.90;99.90
56076;DHT22;41951;49.022;12.066;2022-10-31T06:04:22;9.90;99.90
56076;DHT22;41951;49.022;12.066;2022-10-31T06:06:48;9.90;99.90
56076;DHT22;41951;49.022;12.066;2022-10-31T06:09:14;9.90;99.90
56076;DHT22;41951;49.022;12.066;2022-10-31T06:11:39;9.90;99.90
56076;DHT22;41951;49.022;12.066;2022-10-31T06:14:05;9.90;99.90
56076;DHT22;41951;49.022;12.066;2022-10-31T06:16:31;9.90;99.90
56076;DHT22;41951;49.022;12.066;2022-10-31T06:18:56;9.90;99.90
56076;DHT22;41951;49.022;12.066;2022-10-31T06:21:22;9.90;99.90
56076;DHT22;41951;49.022;12.066;2022-10-31T06:23:48;9.90;99.90
56076;DHT22;41951;49.022;12.066;2022-10-31T06:26:13;9.80;99.90
56076;DHT22;41951;49.022;12.066;2022-10-31T06:28:39;9.80;99.90
56076;DHT22;41951;49.022;12.066;2022-10-31T06:31:04;9.70;99.90
56076;DHT22;41951;49.022;12.066;2022-10-31T06:33:30;9.70;99.90
56076;DHT22;41951;49.022;12.066;2022-10-31T06:35:55;9.60;99.90
56076;DHT22;41951;49.022;12.066;2022-10-31T06:38:21;9.60;99.90
56076;DHT22;41951;49.022;12.066;2022-10-31T06:40:47;9.70;99.90
56076;DHT22;41951;49.022;12.066;2022-10-31T06:43:12;9.70;99.90
56076;DHT22;41951;49.022;12.066;2022-10-31T06:45:40;9.80;99.90
56076;DHT22;41951;49.022;12.066;2022-10-31T06:48:05;9.80;99.90
56076;DHT22;41951;49.022;12.066;2022-10-31T06:50:31;9.80;99.90
56076;DHT22;41951;49.022;12.066;2022-10-31T06:52:58;9.90;99.90
56076;DHT22;41951;49.022;12.066;2022-10-31T06:55:25;9.90;99.90
56076;DHT22;41951;49.022;12.066;2022-10-31T06:58:00;9.90;99.90
56076;DHT22;41951;49.022;12.066;2022-10-31T07:00:28;9.90;99.90
56076;DHT22;41951;49.022;12.066;2022-10-31T07:03:01;9.90;99.90
56076;DHT22;41951;49.022;12.066;2022-10-31T07:05:28;10.00;99.90
56076;DHT22;41951;49.022;12.066;2022-10-31T07:07:55;10.00;99.90
56076;DHT22;41951;49.022;12.066;2022-10-31T07:10:23;10.00;99.90
56076;DHT22;41951;49.022;12.066;2022-10-31T07:12:53;10.10;99.90
56076;DHT22;41951;49.022;12.066;2022-10-31T07:15:18;10.10;99.90
56076;DHT22;41951;49.022;12.066;2022-10-31T07:17:44;10.10;99.90
56076;DHT22;41951;49.022;12.066;2022-10-31T07:20:10;10.10;99.90
56076;DHT22;41951;49.022;12.066;2022-10-31T07:22:36;10.10;99.90
56076;DHT22;41951;49.022;12.066;2022-10-31T07:25:03;10.10;99.90
56076;DHT22;41951;49.022;12.066;2022-10-31T07:27:28;10.20;99.90
56076;DHT22;41951;49.022;12.066;2022-10-31T07:29:54;10.10;99.90
56076;DHT22;41951;49.022;12.066;2022-10-31T07:32:19;10.20;99.90
56076;DHT22;41951;49.022;12.066;2022-10-31T07:34:45;10.20;99.90
56076;DHT22;41951;49.022;12.066;2022-10-31T07:37:11;10.20;99.90
56076;DHT22;41951;49.022;12.066;2022-10-31T07:39:36;10.50;99.90
56076;DHT22;41951;49.022;12.066;2022-10-31T07:42:02;10.20;99.90
56076;DHT22;41951;49.022;12.066;2022-10-31T07:44:27;10.20;99.90
56076;DHT22;41951;49.022;12.066;2022-10-31T07:46:53;10.20;99.90
56076;DHT22;41951;49.022;12.066;2022-10-31T07:49:18;10.30;99.90
56076;DHT22;41951;49.022;12.066;2022-10-31T07:51:44;10.20;99.90
56076;DHT22;41951;49.022;12.066;2022-10-31T07:54:13;10.30;99.90
56076;DHT22;41951;49.022;12.066;2022-10-31T07:56:38;10.40;99.90
56076;DHT22;41951;49.022;12.066;2022-10-31T07:59:04;10.50;99.90
56076;DHT22;41951;49.022;12.066;2022-10-31T08:01:30;10.50;99.90
56076;DHT22;41951;49.022;12.066;2022-10-31T08:03:55;10.60;99.90
56076;DHT22;41951;49.022;12.066;2022-10-31T08:06:21;10.50;99.90
56076;DHT22;41951;49.022;12.066;2022-10-31T08:08:46;10.60;99.90
56076;DHT22;41951;49.022;12.066;2022-10-31T08:11:12;10.60;99.90
56076;DHT22;41951;49.022;12.066;2022-10-31T08:13:37;10.60;99.90
56076;DHT22;41951;49.022;12.066;2022-10-31T08:16:03;10.60;99.90
56076;DHT22;41951;49.022;12.066;2022-10-31T08:18:30;10.60;99.90
56076;DHT22;41951;49.022;12.066;2022-10-31T08:20:56;10.60;99.90
56076;DHT22;41951;49.022;12.066;2022-10-31T08:23:21;10.70;99.90
56076;DHT22;41951;49.022;12.066;2022-10-31T08:25:47;10.70;99.90
56076;DHT22;41951;49.022;12.066;2022-10-31T08:28:13;10.60;99.90
56076;DHT22;41951;49.022;12.066;2022-10-31T08:30:40;10.60;99.90
56076;DHT22;41951;49.022;12.066;2022-10-31T08:33:14;10.60;99.90
56076;DHT22;41951;49.022;12.066;2022-10-31T08:35:40;10.70;99.90
56076;DHT22;41951;49.022;12.066;2022-10-31T08:38:06;10.70;99.90
56076;DHT22;41951;49.022;12.066;2022-10-31T08:40:33;10.70;99.90
56076;DHT22;41951;49.022;12.066;2022-10-31T08:43:08;10.80;99.90
56076;DHT22;41951;49.022;12.066;2022-10-31T08:45:36;10.80;99.90
56076;DHT22;41951;49.022;12.066;2022-10-31T08:48:04;10.80;99.90
56076;DHT22;41951;49.022;12.066;2022-10-31T08:50:32;10.90;99.90
56076;DHT22;41951;49.022;12.066;2022-10-31T08:53:07;10.80;99.90
56076;DHT22;41951;49.022;12.066;2022-10-31T08:55:36;10.90;99.90
56076;DHT22;41951;49.022;12.066;2022-10-31T08:58:04;11.00;99.90
56076;DHT22;41951;49.022;12.066;2022-10-31T09:00:32;11.00;99.90
56076;DHT22;41951;49.022;12.066;2022-10-31T09:03:00;11.10;99.90
56076;DHT22;41951;49.022;12.066;2022-10-31T09:05:25;11.10;99.90
56076;DHT22;41951;49.022;12.066;2022-10-31T09:07:55;11.20;99.90
56076;DHT22;41951;49.022;12.066;2022-10-31T09:10:21;11.10;99.90
56076;DHT22;41951;49.022;12.066;2022-10-31T09:12:47;11.10;99.90
56076;DHT22;41951;49.022;12.066;2022-10-31T09:15:12;11.20;99.90
56076;DHT22;41951;49.022;12.066;2022-10-31T09:17:38;11.20;99.90
56076;DHT22;41951;49.022;12.066;2022-10-31T09:20:04;11.30;99.90
56076;DHT22;41951;49.022;12.066;2022-10-31T09:22:29;11.30;99.90
56076;DHT22;41951;49.022;12.066;2022-10-31T09:24:55;11.30;99.90
56076;DHT22;41951;49.022;12.066;2022-10-31T09:27:20;11.30;99.90
56076;DHT22;41951;49.022;12.066;2022-10-31T09:29:46;11.20;99.90
56076;DHT22;41951;49.022;12.066;2022-10-31T09:32:11;11.20;99.90
56076;DHT22;41951;49.022;12.066;2022-10-31T09:34:37;11.20;99.90
56076;DHT22;41951;49.022;12.066;2022-10-31T09:37:03;11.30;99.90
56076;DHT22;41951;49.022;12.066;2022-10-31T09:39:28;11.40;99.90
56076;DHT22;41951;49.022;12.066;2022-10-31T09:42:18;11.50;99.90
56076;DHT22;41951;49.022;12.066;2022-10-31T09:45:04;11.50;99.90
56076;DHT22;41951;49.022;12.066;2022-10-31T09:50:44;11.50;99.90
56076;DHT22;41951;49.022;12.066;2022-10-31T09:56:01;11.50;99.90
56076;DHT22;41951;49.022;12.066;2022-10-31T09:58:30;11.50;99.90
56076;DHT22;41951;49.022;12.066;2022-10-31T10:01:00;11.50;99.90
56076;DHT22;41951;49.022;12.066;2022-10-31T10:03:44;11.50;99.90
56076;DHT22;41951;49.022;12.066;2022-10-31T10:06:23;11.60;99.90
56076;DHT22;41951;49.022;12.066;2022-10-31T10:08:49;11.60;99.90
56076;DHT22;41951;49.022;12.066;2022-10-31T10:14:15;11.70;99.90
56076;DHT22;41951;49.022;12.066;2022-10-31T10:22:24;11.70;99.90
56076;DHT22;41951;49.022;12.066;2022-10-31T10:30:59;11.90;99.90
56076;DHT22;41951;49.022;12.066;2022-10-31T10:33:16;11.90;99.90
56076;DHT22;41951;49.022;12.066;2022-10-31T10:35:57;12.00;99.90
56076;DHT22;41951;49.022;12.066;2022-10-31T10:38:29;12.10;99.90
56076;DHT22;41951;49.022;12.066;2022-10-31T10:40:58;12.20;99.90
56076;DHT22;41951;49.022;12.066;2022-10-31T10:43:37;12.30;99.90
56076;DHT22;41951;49.022;12.066;2022-10-31T10:46:29;12.40;99.90
56076;DHT22;41951;49.022;12.066;2022-10-31T11:00:21;12.50;99.90
56076;DHT22;41951;49.022;12.066;2022-10-31T11:02:48;12.50;99.90
56076;DHT22;41951;49.022;12.066;2022-10-31T11:07:52;12.50;99.90
56076;DHT22;41951;49.022;12.066;2022-10-31T11:10:17;12.50;99.90
56076;DHT22;41951;49.022;12.066;2022-10-31T11:12:56;12.50;99.90
56076;DHT22;41951;49.022;12.066;2022-10-31T11:15:24;12.50;99.90
56076;DHT22;41951;49.022;12.066;2022-10-31T11:17:52;12.60;99.90
56076;DHT22;41951;49.022;12.066;2022-10-31T11:22:48;12.60;99.90
56076;DHT22;41951;49.022;12.066;2022-10-31T11:25:27;12.70;99.90
56076;DHT22;41951;49.022;12.066;2022-10-31T11:28:07;12.70;99.90
56076;DHT22;41951;49.022;12.066;2022-10-31T11:30:44;12.80;99.90
56076;DHT22;41951;49.022;12.066;2022-10-31T11:33:21;12.90;99.90
56076;DHT22;41951;49.022;12.066;2022-10-31T11:35:48;12.90;99.90
56076;DHT22;41951;49.022;12.066;2022-10-31T11:38:18;13.00;99.90
56076;DHT22;41951;49.022;12.066;2022-10-31T11:40:58;13.00;99.90
56076;DHT22;41951;49.022;12.066;2022-10-31T11:43:25;13.10;99.90
56076;DHT22;41951;49.022;12.066;2022-10-31T11:45:51;13.10;99.90
56076;DHT22;41951;49.022;12.066;2022-10-31T11:48:19;13.20;99.90
56076;DHT22;41951;49.022;12.066;2022-10-31T11:50:56;13.20;99.90
56076;DHT22;41951;49.022;12.066;2022-10-31T11:53:29;13.10;99.90
56076;DHT22;41951;49.022;12.066;2022-10-31T11:56:09;13.10;99.90
56076;DHT22;41951;49.022;12.066;2022-10-31T11:58:35;13.30;99.90
56076;DHT22;41951;49.022;12.066;2022-10-31T12:01:01;13.20;99.90
56076;DHT22;41951;49.022;12.066;2022-10-31T12:06:21;13.50;99.90
56076;DHT22;41951;49.022;12.066;2022-10-31T12:08:48;13.60;99.90
56076;DHT22;41951;49.022;12.066;2022-10-31T12:14:12;13.60;99.90
56076;DHT22;41951;49.022;12.066;2022-10-31T12:19:36;13.80;99.90
56076;DHT22;41951;49.022;12.066;2022-10-31T12:24:54;13.80;99.90
56076;DHT22;41951;49.022;12.066;2022-10-31T12:36:25;14.10;99.90
56076;DHT22;41951;49.022;12.066;2022-10-31T12:39:09;14.10;99.90
56076;DHT22;41951;49.022;12.066;2022-10-31T12:42:00;14.20;99.90
56076;DHT22;41951;49.022;12.066;2022-10-31T12:44:59;14.30;99.90
56076;DHT22;41951;49.022;12.066;2022-10-31T12:53:31;14.50;99.90
56076;DHT22;41951;49.022;12.066;2022-10-31T12:59:21;14.80;99.90
56076;DHT22;41951;49.022;12.066;2022-10-31T13:07:22;15.20;99.90
56076;DHT22;41951;49.022;12.066;2022-10-31T13:12:39;15.10;99.90
56076;DHT22;41951;49.022;12.066;2022-10-31T13:15:16;15.10;99.90
56076;DHT22;41951;49.022;12.066;2022-10-31T13:17:46;15.10;99.90
56076;DHT22;41951;49.022;12.066;2022-10-31T13:20:44;15.00;99.90
56076;DHT22;41951;49.022;12.066;2022-10-31T13:23:20;15.00;99.90
56076;DHT22;41951;49.022;12.066;2022-10-31T13:25:54;14.90;99.90
56076;DHT22;41951;49.022;12.066;2022-10-31T13:30:56;14.90;99.90
56076;DHT22;41951;49.022;12.066;2022-10-31T13:36:18;14.80;99.90
56076;DHT22;41951;49.022;12.066;2022-10-31T13:38:52;14.80;99.90
56076;DHT22;41951;49.022;12.066;2022-10-31T13:46:43;14.60;99.90
56076;DHT22;41951;49.022;12.066;2022-10-31T13:52:23;14.50;99.90
56076;DHT22;41951;49.022;12.066;2022-10-31T13:54:54;14.50;99.90
56076;DHT22;41951;49.022;12.066;2022-10-31T13:57:43;14.50;99.90
56076;DHT22;41951;49.022;12.066;2022-10-31T14:00:23;14.40;99.90
56076;DHT22;41951;49.022;12.066;2022-10-31T14:02:52;14.40;99.90
56076;DHT22;41951;49.022;12.066;2022-10-31T14:05:23;14.50;99.90
56076;DHT22;41951;49.022;12.066;2022-10-31T14:07:52;14.40;99.90
56076;DHT22;41951;49.022;12.066;2022-10-31T14:12:54;14.40;99.90
56076;DHT22;41951;49.022;12.066;2022-10-31T14:15:28;14.30;99.90
56076;DHT22;41951;49.022;12.066;2022-10-31T14:18:03;14.30;99.90
56076;DHT22;41951;49.022;12.066;2022-10-31T14:20:41;14.30;99.90
56076;DHT22;41951;49.022;12.066;2022-10-31T14:23:32;14.20;99.90
56076;DHT22;41951;49.022;12.066;2022-10-31T14:28:43;14.10;99.90
56076;DHT22;41951;49.022;12.066;2022-10-31T14:52:47;14.40;99.90
56076;DHT22;41951;49.022;12.066;2022-10-31T14:55:17;14.40;99.90
56076;DHT22;41951;49.022;12.066;2022-10-31T14:57:53;14.50;99.90
56076;DHT22;41951;49.022;12.066;2022-10-31T15:00:21;14.40;99.90
56076;DHT22;41951;49.022;12.066;2022-10-31T15:03:09;14.50;99.90
56076;DHT22;41951;49.022;12.066;2022-10-31T15:05:51;14.50;99.90
56076;DHT22;41951;49.022;12.066;2022-10-31T15:16:14;14.40;99.90
56076;DHT22;41951;49.022;12.066;2022-10-31T15:18:59;14.40;99.90
56076;DHT22;41951;49.022;12.066;2022-10-31T15:21:27;14.40;99.90
56076;DHT22;41951;49.022;12.066;2022-10-31T15:23:55;14.30;99.90
56076;DHT22;41951;49.022;12.066;2022-10-31T15:26:23;14.30;99.90
56076;DHT22;41951;49.022;12.066;2022-10-31T15:29:19;14.30;99.90
56076;DHT22;41951;49.022;12.066;2022-10-31T15:31:58;14.20;99.90
56076;DHT22;41951;49.022;12.066;2022-10-31T15:36:50;14.20;99.90
56076;DHT22;41951;49.022;12.066;2022-10-31T15:39:16;14.10;99.90
56076;DHT22;41951;49.022;12.066;2022-10-31T15:41:48;14.10;99.90
56076;DHT22;41951;49.022;12.066;2022-10-31T15:44:19;14.00;99.90
56076;DHT22;41951;49.022;12.066;2022-10-31T15:47:03;14.00;99.90
56076;DHT22;41951;49.022;12.066;2022-10-31T15:49:38;14.00;99.90
56076;DHT22;41951;49.022;12.066;2022-10-31T15:54:56;13.90;99.90
56076;DHT22;41951;49.022;12.066;2022-10-31T15:57:23;13.90;99.90
56076;DHT22;41951;49.022;12.066;2022-10-31T15:59:49;13.80;99.90
56076;DHT22;41951;49.022;12.066;2022-10-31T16:02:19;13.80;99.90
56076;DHT22;41951;49.022;12.066;2022-10-31T16:05:00;13.70;99.90
56076;DHT22;41951;49.022;12.066;2022-10-31T16:07:27;13.70;99.90
56076;DHT22;41951;49.022;12.066;2022-10-31T16:10:00;13.70;99.90
56076;DHT22;41951;49.022;12.066;2022-10-31T16:12:35;13.60;99.90
56076;DHT22;41951;49.022;12.066;2022-10-31T16:15:03;13.60;99.90
56076;DHT22;41951;49.022;12.066;2022-10-31T16:17:29;13.50;99.90
56076;DHT22;41951;49.022;12.066;2022-10-31T16:20:01;13.50;99.90
56076;DHT22;41951;49.022;12.066;2022-10-31T16:22:30;13.50;99.90
56076;DHT22;41951;49.022;12.066;2022-10-31T16:25:01;13.50;99.90
56076;DHT22;41951;49.022;12.066;2022-10-31T16:27:32;13.40;99.90
56076;DHT22;41951;49.022;12.066;2022-10-31T16:29:59;13.40;99.90
56076;DHT22;41951;49.022;12.066;2022-10-31T16:32:36;13.40;99.90
56076;DHT22;41951;49.022;12.066;2022-10-31T16:37:37;13.30;99.90
56076;DHT22;41951;49.022;12.066;2022-10-31T16:40:03;13.30;99.90
56076;DHT22;41951;49.022;12.066;2022-10-31T16:42:29;13.30;99.90
56076;DHT22;41951;49.022;12.066;2022-10-31T16:44:54;13.30;99.90
56076;DHT22;41951;49.022;12.066;2022-10-31T16:47:20;13.30;99.90
56076;DHT22;41951;49.022;12.066;2022-10-31T16:49:47;13.30;99.90
56076;DHT22;41951;49.022;12.066;2022-10-31T16:52:14;13.20;99.90
56076;DHT22;41951;49.022;12.066;2022-10-31T16:54:40;13.20;99.90
56076;DHT22;41951;49.022;12.066;2022-10-31T16:57:06;13.20;99.90
56076;DHT22;41951;49.022;12.066;2022-10-31T16:59:36;13.20;99.90
56076;DHT22;41951;49.022;12.066;2022-10-31T17:02:02;13.10;99.90
56076;DHT22;41951;49.022;12.066;2022-10-31T17:04:28;13.10;99.90
56076;DHT22;41951;49.022;12.066;2022-10-31T17:06:55;13.10;99.90
56076;DHT22;41951;49.022;12.066;2022-10-31T17:09:21;13.00;99.90
56076;DHT22;41951;49.022;12.066;2022-10-31T17:11:50;13.00;99.90
56076;DHT22;41951;49.022;12.066;2022-10-31T17:14:17;13.00;99.90
56076;DHT22;41951;49.022;12.066;2022-10-31T17:16:43;13.00;99.90
56076;DHT22;41951;49.022;12.066;2022-10-31T17:19:10;12.90;99.90
56076;DHT22;41951;49.022;12.066;2022-10-31T17:21:36;13.10;99.90
56076;DHT22;41951;49.022;12.066;2022-10-31T17:24:02;12.80;99.90
56076;DHT22;41951;49.022;12.066;2022-10-31T17:26:28;12.80;99.90
56076;DHT22;41951;49.022;12.066;2022-10-31T17:28:53;12.70;99.90
56076;DHT22;41951;49.022;12.066;2022-10-31T17:31:21;12.70;99.90
56076;DHT22;41951;49.022;12.066;2022-10-31T17:33:47;12.70;99.90
56076;DHT22;41951;49.022;12.066;2022-10-31T17:36:13;12.70;99.90
56076;DHT22;41951;49.022;12.066;2022-10-31T17:38:39;12.70;99.90
56076;DHT22;41951;49.022;12.066;2022-10-31T17:41:05;12.70;99.90
56076;DHT22;41951;49.022;12.066;2022-10-31T17:43:31;12.60;99.90
56076;DHT22;41951;49.022;12.066;2022-10-31T17:46:00;12.60;99.90
56076;DHT22;41951;49.022;12.066;2022-10-31T17:48:26;12.50;99.90
56076;DHT22;41951;49.022;12.066;2022-10-31T17:50:52;12.60;99.90
56076;DHT22;41951;49.022;12.066;2022-10-31T17:53:18;12.50;99.90
56076;DHT22;41951;49.022;12.066;2022-10-31T17:55:43;12.50;99.90
56076;DHT22;41951;49.022;12.066;2022-10-31T17:58:09;12.40;99.90
56076;DHT22;41951;49.022;12.066;2022-10-31T18:00:38;12.40;99.90
56076;DHT22;41951;49.022;12.066;2022-10-31T18:03:03;12.50;99.90
56076;DHT22;41951;49.022;12.066;2022-10-31T18:05:29;12.50;99.90
56076;DHT22;41951;49.022;12.066;2022-10-31T18:07:55;12.30;99.90
56076;DHT22;41951;49.022;12.066;2022-10-31T18:10:21;12.30;99.90
56076;DHT22;41951;49.022;12.066;2022-10-31T18:12:46;11.50;99.90
56076;DHT22;41951;49.022;12.066;2022-10-31T18:15:14;12.30;99.90
56076;DHT22;41951;49.022;12.066;2022-10-31T18:17:40;12.20;99.90
56076;DHT22;41951;49.022;12.066;2022-10-31T18:20:06;12.20;99.90
56076;DHT22;41951;49.022;12.066;2022-10-31T18:22:32;12.20;99.90